METAR Data
IDs: Format: Raw Decoded Include TAF

Data at: 2310 UTC 10 May 2021

KTAD 102254Z AUTO 32017G26KT 10SM FEW033 SCT065 BKN100 09/04 A2996 RMK AO2 PK WND 31029/2226 RAB21E52 SLP117 P0000 T00940044
KTAD 102154Z AUTO 31017KT 10SM SCT045 BKN049 OVC065 13/06 A2995 RMK AO2 SLP110 T01280061
KTAD 102054Z AUTO VRB05KT 10SM BKN055 16/05 A2994 RMK AO2 SLP098 T01610050 58017
KTAD 101954Z AUTO 06004KT 10SM SCT110 14/05 A2996 RMK AO2 LTG DSNT SW SLP108 T01440050
KTAD 101854Z AUTO VRB05KT 10SM BKN036 15/06 A2998 RMK AO2 SLP109 T01500061
KTAD 101754Z AUTO 08005KT 10SM SCT030 12/05 A2999 RMK AO2 SLP123 60006 T01220050 10133 20044 58020
KTAD 101741Z AUTO 10SM SCT026 13/06 A3000 RMK AO2 T01280056
KTAD 101654Z AUTO 00000KT 10SM BKN025 10/04 A3002 RMK AO2 SLP134 T01000044
KTAD 101623Z AUTO 12007KT 10SM BKN015 BKN023 OVC027 09/04 A3003 RMK AO2 T00890044
KTAD 101554Z AUTO 14008KT 10SM SCT009 OVC013 08/05 A3004 RMK AO2 SLP145 T00830050
KTAD 101530Z AUTO 15009KT 10SM OVC009 07/04 A3005 RMK AO2 CIG 007V012 T00670044
KTAD 101517Z AUTO 15006KT 10SM BKN010 OVC039 07/04 A3005 RMK AO2 CIG 007V012 T00670039
KTAD 101454Z AUTO 20004KT 10SM BKN007 OVC039 06/04 A3006 RMK AO2 RAE08 CIG 005V010 SLP157 P0001 60006 T00610039 58008
KTAD 101446Z AUTO 00000KT 10SM BKN006 OVC025 06/03 A3007 RMK AO2 RAE08 P0001 T00610033
KTAD 101419Z AUTO 00000KT 10SM FEW004 BKN026 OVC036 06/03 A3008 RMK AO2 RAE08 P0001 T00560033
KTAD 101401Z AUTO 31004KT 5SM -RA BR SCT004 BKN013 OVC036 05/04 A3009 RMK AO2 P0001 T00500039
KTAD 101354Z AUTO 32004KT 2 1/2SM RA BR SCT004 BKN014 OVC036 05/03 A3009 RMK AO2 RAB1259 SLP166 P0005 T00500033
KTAD 101254Z AUTO 01006KT 10SM OVC004 05/03 A3010 RMK AO2 SLP167 T00500028
KTAD 101240Z AUTO 01006KT 10SM BKN004 OVC013 05/03 A3010 RMK AO2 T00500028
KTAD 101209Z AUTO 01007KT 10SM SCT003 OVC014 04/03 A3009 RMK AO2 T00440028
KTAD 101154Z AUTO 01006KT 10SM FEW003 BKN015 OVC035 05/03 A3009 RMK AO2 RAE30 SLP169 P0001 60012 70016 T00500033 10061 20033 56002
KTAD 101147Z AUTO 03006KT 10SM FEW003 BKN017 OVC037 05/03 A3009 RMK AO2 RAE30 P0001 T00500028
KTAD 101109Z AUTO 33005KT 10SM -RA FEW015 OVC039 04/02 A3009 RMK AO2 P0000 T00440022
KTAD 101054Z AUTO 34003KT 10SM -RA BKN015 BKN036 OVC045 04/02 A3009 RMK AO2 RAB51 SLP165 P0000 T00440022
KTAD 100954Z AUTO 33006KT 10SM BKN015 OVC033 04/02 A3009 RMK AO2 RAE24 SLP168 P0000 T00390017
KTAD 100946Z AUTO 34005KT 10SM BKN015 BKN032 OVC041 04/02 A3009 RMK AO2 RAE24 P0000 T00390017
KTAD 100854Z AUTO 30007KT 10SM -RA FEW010 BKN041 OVC060 03/02 A3010 RMK AO2 SLP172 P0006 60011 T00330017 58003
KTAD 100814Z AUTO 27007KT 8SM -RA BKN022 OVC037 04/02 A3011 RMK AO2 P0003 T00390017
KTAD 100805Z AUTO 29006KT 6SM RA BR SCT010 SCT024 OVC037 04/02 A3011 RMK AO2 P0002 T00390022
KTAD 100754Z AUTO 32007KT 9SM -RA BKN008 OVC038 04/02 A3011 RMK AO2 SLP174 P0004 T00440022
KTAD 100654Z AUTO 08004KT 10SM -RA OVC008 06/03 A3011 RMK AO2 SLP175 P0001 T00560033 400940044
KTAD 100644Z AUTO 07005KT 10SM -RA OVC009 06/03 A3011 RMK AO2 CIG 007V011 P0001 T00560028
KTAD 100613Z AUTO 00000KT 10SM -RA BKN012 OVC018 06/02 A3012 RMK AO2 P0000 T00560017
KTAD 100554Z AUTO 10004KT 10SM -RA OVC016 06/01 A3011 RMK AO2 RAB48 SLP171 P0000 60000 T00560011 10089 20056 50005
KTAD 100454Z AUTO 03005KT 10SM OVC024 06/01 A3012 RMK AO2 RAB03E41 SLP178 P0000 T00610006
KTAD 100354Z AUTO 34004KT 10SM OVC024 07/M01 A3013 RMK AO2 SLP180 T00721006
KTAD 100254Z AUTO 05007KT 10SM OVC022 07/M01 A3009 RMK AO2 SLP170 T00721006 53011
KTAD 100154Z AUTO 04008KT 10SM OVC021 08/00 A3008 RMK AO2 SLP163 T00780000
KTAD 100054Z AUTO 08006KT 10SM OVC024 09/03 A3005 RMK AO2 LTG DSNT SE SLP152 T00890033
KTAD 092354Z AUTO 08007KT 10SM OVC026 07/04 A3005 RMK AO2 SLP149 60004 T00720039 10094 20072 55002
KTAD 092311Z AUTO 09009KT 10SM OVC029 09/03 A3004 RMK AO2 LTG DSNT S T00890033
KTAD 092254Z AUTO 06008KT 10SM OVC030 09/03 A3005 RMK AO2 LTG DSNT SE AND S SLP149 T00940033
KTAD 092154Z AUTO 09008G19KT 10SM FEW028 BKN048 BKN060 09/03 A3004 RMK AO2 LTG DSNT SW RAE20 SLP146 P0000 T00890033
KTAD 092054Z AUTO 12007KT 10SM -RA OVC049 08/02 A3006 RMK AO2 RAE24B49 SLP151 P0000 60004 T00830022 58007
KTAD 091954Z AUTO 14005KT 10SM -RA FEW023 BKN031 OVC060 09/03 A3007 RMK AO2 LTG DSNT S AND SW SLP154 P0003 T00890033
KTAD 091917Z AUTO 12005KT 6SM -RA BKN027 OVC034 07/02 A3006 RMK AO2 LTG DSNT SE AND SW P0003 T00720022
KTAD 091854Z AUTO VRB06KT 8SM VCTS -RA OVC030 08/02 A3008 RMK AO2 LTG DSNT S AND SW RAB26 SLP157 P0001 T00780017
KTAD 091844Z AUTO VRB03KT 10SM -RA OVC030 08/01 A3009 RMK AO2 LTG DSNT SW RAB26 P0000 T00830011
KTAD 091754Z AUTO 11008KT 10SM OVC024 08/01 A3010 RMK AO2 LTG DSNT SW SLP160 60000 T00830006 10089 20044 58010
KTAD 091654Z AUTO 11007KT 10SM OVC020 07/01 A3012 RMK AO2 SLP169 T00670006
KTAD 091604Z AUTO 08006KT 10SM SCT012 OVC020 06/01 A3012 RMK AO2 T00560006
KTAD 091554Z AUTO 06006KT 10SM BKN012 OVC019 06/01 A3013 RMK AO2 SLP173 T00560011
KTAD 091538Z AUTO 07009KT 10SM BKN012 OVC018 05/01 A3013 RMK AO2 T00500011
KTAD 091501Z AUTO 05011KT 7SM OVC016 05/02 A3013 RMK AO2 T00500017
KTAD 091454Z AUTO 06010KT 7SM OVC014 05/02 A3013 RMK AO2 RAB02E14 SLP170 P0000 60000 T00500017 53014
KTAD 091354Z AUTO 09010KT 10SM OVC010 05/02 A3012 RMK AO2 SLP155 T00500017
KTAD 091345Z AUTO 10006KT 10SM OVC010 06/02 A3013 RMK AO2 T00560017
KTAD 091254Z AUTO 07014KT 9SM OVC005 06/03 A3009 RMK AO2 SLP140 T00560028
KTAD 091250Z AUTO 06014KT 10SM OVC005 06/03 A3009 RMK AO2
KTAD 091214Z AUTO 07014KT 8SM BKN004 OVC011 06/04 A3006 RMK AO2 CIG 002V007 T00610039
KTAD 091200Z AUTO 05013G18KT 10SM OVC009 08/04 A3006 RMK AO2 CIG 006V012 T00780044
KTAD 091154Z AUTO 05009G15KT 10SM OVC011 08/04 A3006 RMK AO2 CIG 008V013 SLP123 T00780039 10094 20044 53015
KTAD 091137Z AUTO 03003KT 10SM BKN010 BKN036 07/03 A3005 RMK AO2 CIG 008V013 T00720033